Majenica, Indiana
Current Conditions -  °F | °C
As of 7:15 AM on Sunday 25 Jan 2015 (Local Time) from KHHG Reporting Station
Haze Haze  
Wind Chill: 32°   Ceiling: Unl
Heat Index: 32°   Visibility: 5mi
Dew Point: 28°   Wind: 3mph
Humidity: 87%   Direction: 80°E
Pressure: 29.7"   Gusts: NA
Location:  40.9238°N, 85.5001°W
Report Text: KHHG 251215Z AUTO 08003KT 5SM BR CLR 00/M02 A2970 RMK AO2 T10011021
Loading
Personal Weather Stations






























Interactive Weather Map New forecast layout! Learn more

10-Day Weather Forecast

Advertisements
Track Severe Weather on mobile